Disclaimer

Please do not use the information listed here in-flight or in-navigation, as they are not provided to us by the airports but are provided by volunteers, so they might be outdated.

Search


Regions


Airport information page

Radio informations:
Tower (TWR) - 118.1 MHz
Approach (APP) - 119.1 MHz

Airport informations:
Latitude: 00° 02' 32.59" N
Longitude: 032° 26' 36.61" E
Elevation: 3782 feet - 1153 meters
Operating hours: N/A
Operating agency: Military-civil joint use airport
Timezone: UTC+3
Fuel: Jet A1, without icing nhibitor.

Runway information:
12/30 - 7900 x 150 feet< - >2408 x 46 meters
17/35 - 12000 x 150 feet< - >3658 x 46 meters

Recent METARs:
HUEN 131900Z 34005KT 9999 FEW021 FEW023CB 21/19 Q1016
HUEN 132000Z 00000KT 9999 FEW020 FEW022CB 21/19 Q1016
HUEN 132000Z 00000KT 9999 FEW020 FEW022CB 21/19 Q1016

Airport on the map: